createdAt,value
2022-10-19T00:00:07.355Z,64.17
2022-10-19T00:01:10.613Z,63.27
2022-10-19T00:02:07.351Z,63.27
2022-10-19T00:03:03.943Z,63.70
2022-10-19T00:04:03.488Z,63.99
2022-10-19T00:05:03.353Z,65.10
2022-10-19T00:06:00.680Z,65.10
2022-10-19T00:06:57.271Z,65.18
2022-10-19T00:07:54.568Z,64.30
2022-10-19T00:08:56.400Z,63.78
2022-10-19T00:09:52.974Z,64.70
2022-10-19T00:10:49.803Z,65.66
2022-10-19T00:11:48.730Z,66.43
2022-10-19T00:12:45.321Z,65.66
2022-10-19T00:13:41.981Z,64.81
2022-10-19T00:14:38.982Z,65.28
2022-10-19T00:15:40.292Z,65.05
2022-10-19T00:16:38.518Z,66.38
2022-10-19T00:17:35.705Z,66.21
2022-10-19T00:18:32.528Z,66.05
2022-10-19T00:19:29.358Z,65.76
2022-10-19T00:20:25.932Z,65.90
2022-10-19T00:21:22.484Z,65.03
2022-10-19T00:22:19.057Z,65.38
2022-10-19T00:23:15.741Z,64.37
2022-10-19T00:24:12.400Z,63.22
2022-10-19T00:25:09.233Z,62.98
2022-10-19T00:26:06.021Z,63.76
2022-10-19T00:27:02.579Z,63.55
2022-10-19T00:27:59.187Z,62.71
2022-10-19T00:28:56.793Z,64.33
2022-10-19T00:29:53.437Z,63.48
2022-10-19T00:31:51.771Z,63.26
2022-10-19T00:32:48.337Z,62.01
2022-10-19T00:33:46.965Z,61.05
2022-10-19T00:34:43.613Z,63.19
2022-10-19T00:35:40.807Z,62.12
2022-10-19T00:36:40.430Z,61.78
2022-10-19T00:37:37.071Z,62.65
2022-10-19T00:38:33.665Z,62.52
2022-10-19T00:39:30.251Z,62.41
2022-10-19T00:40:26.823Z,62.89
2022-10-19T00:41:25.814Z,61.71
2022-10-19T00:42:22.385Z,61.87
2022-10-19T00:43:23.026Z,62.21
2022-10-19T00:44:19.544Z,63.16
2022-10-19T00:45:17.771Z,62.13
2022-10-19T00:46:14.358Z,62.39
2022-10-19T00:47:10.979Z,62.09
2022-10-19T00:48:09.375Z,62.75
2022-10-19T00:49:15.004Z,62.35
2022-10-19T00:50:14.782Z,64.81
2022-10-19T00:51:11.852Z,64.71
2022-10-19T00:52:13.118Z,64.61
2022-10-19T00:53:10.439Z,65.45
2022-10-19T00:54:08.550Z,65.03
2022-10-19T00:55:07.812Z,66.50
2022-10-19T00:56:13.382Z,65.44
2022-10-19T00:57:11.234Z,64.45
2022-10-19T00:58:08.779Z,63.63
2022-10-19T00:59:06.705Z,63.65
2022-10-19T01:00:06.258Z,62.83
2022-10-19T01:01:05.796Z,63.80
2022-10-19T01:02:04.830Z,64.02
2022-10-19T01:03:02.913Z,63.93
2022-10-19T01:04:00.399Z,64.91
2022-10-19T01:04:57.022Z,64.79
2022-10-19T01:05:53.952Z,65.09
2022-10-19T01:06:52.490Z,64.51
2022-10-19T01:07:49.626Z,65.53
2022-10-19T01:08:46.504Z,65.60
2022-10-19T01:09:43.339Z,65.88
2022-10-19T01:10:58.011Z,65.21
2022-10-19T01:12:30.544Z,65.82
2022-10-19T01:13:53.333Z,67.04
2022-10-19T01:14:59.125Z,66.30
2022-10-19T01:16:19.199Z,67.87
2022-10-19T01:17:25.078Z,67.36
2022-10-19T01:18:37.039Z,66.01
2022-10-19T01:19:58.238Z,67.42
2022-10-19T01:21:16.527Z,67.01
2022-10-19T01:22:45.578Z,66.26
2022-10-19T01:24:04.841Z,66.84
2022-10-19T01:25:37.535Z,66.82
2022-10-19T01:26:47.703Z,67.44
2022-10-19T01:27:46.792Z,66.90
2022-10-19T01:28:57.331Z,65.88
2022-10-19T01:30:08.689Z,65.67
2022-10-19T01:31:37.250Z,66.44
2022-10-19T01:32:51.936Z,67.86
2022-10-19T01:33:51.225Z,67.55
2022-10-19T01:34:51.491Z,67.51
2022-10-19T01:35:48.016Z,67.72
2022-10-19T01:36:50.959Z,68.07
2022-10-19T01:37:59.589Z,68.02
2022-10-19T01:39:05.305Z,67.42
2022-10-19T01:40:10.104Z,66.48
2022-10-19T01:41:18.586Z,66.59
2022-10-19T01:42:31.380Z,67.92
2022-10-19T01:43:37.956Z,66.68
2022-10-19T01:44:59.540Z,64.24
2022-10-19T01:46:09.202Z,61.35
2022-10-19T01:47:16.767Z,62.09
2022-10-19T01:48:22.136Z,64.36
2022-10-19T01:49:37.317Z,66.17
2022-10-19T01:50:46.176Z,67.66
2022-10-19T01:51:49.734Z,67.79
2022-10-19T01:52:49.356Z,67.96
2022-10-19T01:53:49.363Z,67.78
2022-10-19T01:54:50.462Z,68.80
2022-10-19T01:55:51.361Z,68.83
2022-10-19T01:56:50.250Z,69.09
2022-10-19T01:57:51.909Z,69.10
2022-10-19T01:58:50.514Z,68.61
2022-10-19T01:59:49.224Z,68.98
2022-10-19T02:00:48.673Z,70.33
2022-10-19T02:01:47.459Z,69.95
2022-10-19T02:02:49.860Z,69.75
2022-10-19T02:03:47.138Z,69.75
2022-10-19T02:04:44.681Z,69.21
2022-10-19T02:05:42.664Z,69.30
2022-10-19T02:06:39.723Z,68.93
2022-10-19T02:07:40.407Z,69.38
2022-10-19T02:08:54.349Z,70.56
2022-10-19T02:09:51.052Z,69.99
2022-10-19T02:10:48.538Z,69.70
2022-10-19T02:11:50.389Z,69.44
2022-10-19T02:12:49.559Z,69.72
2022-10-19T02:13:51.130Z,69.04
2022-10-19T02:14:52.303Z,68.98
2022-10-19T02:15:52.714Z,69.38
2022-10-19T02:16:58.038Z,69.41
2022-10-19T02:17:57.450Z,69.40
2022-10-19T02:18:55.899Z,68.52
2022-10-19T02:19:54.575Z,68.89
2022-10-19T02:20:51.383Z,68.39
2022-10-19T02:21:48.275Z,68.48
2022-10-19T02:22:45.137Z,69.13
2022-10-19T02:23:41.749Z,69.07
2022-10-19T02:24:38.499Z,68.37
2022-10-19T02:25:35.323Z,69.50
2022-10-19T02:26:32.533Z,69.74
2022-10-19T02:27:29.344Z,69.04
2022-10-19T02:28:27.181Z,68.99
2022-10-19T02:29:23.859Z,67.95
2022-10-19T02:30:33.293Z,69.53
2022-10-19T02:31:30.212Z,69.94
2022-10-19T02:32:27.892Z,69.00
2022-10-19T02:33:24.978Z,68.43
2022-10-19T02:34:21.565Z,68.59
2022-10-19T02:35:18.372Z,67.87
2022-10-19T02:36:15.250Z,66.67
2022-10-19T02:37:12.080Z,65.80
2022-10-19T02:38:11.834Z,64.04
2022-10-19T02:39:09.101Z,67.21
2022-10-19T02:40:07.206Z,69.62
2022-10-19T02:41:18.078Z,69.37
2022-10-19T02:42:29.098Z,68.74
2022-10-19T02:43:28.957Z,68.17
2022-10-19T02:44:40.577Z,69.07
2022-10-19T02:45:43.133Z,69.27
2022-10-19T02:46:44.860Z,70.37
2022-10-19T02:48:05.035Z,70.28
2022-10-19T02:49:04.285Z,69.52
2022-10-19T02:50:04.595Z,69.91
2022-10-19T02:51:01.165Z,70.26
2022-10-19T02:52:06.136Z,70.45
2022-10-19T02:53:02.949Z,71.10
2022-10-19T02:54:02.673Z,71.12
2022-10-19T02:55:01.715Z,72.25
2022-10-19T02:55:58.315Z,71.50
2022-10-19T02:56:55.722Z,71.97
2022-10-19T02:57:52.350Z,71.75
2022-10-19T02:58:49.221Z,72.14
2022-10-19T02:59:46.568Z,72.25
2022-10-19T03:00:43.303Z,73.42
2022-10-19T03:01:39.940Z,73.13
2022-10-19T03:02:36.567Z,73.70
2022-10-19T03:03:33.123Z,72.32
2022-10-19T03:04:29.730Z,72.48
2022-10-19T03:05:26.398Z,71.92
2022-10-19T03:06:22.961Z,72.80
2022-10-19T03:07:22.505Z,73.10
2022-10-19T03:08:19.115Z,73.15
2022-10-19T03:09:16.093Z,72.79
2022-10-19T03:10:13.724Z,72.44
2022-10-19T03:11:10.801Z,72.94
2022-10-19T03:12:07.559Z,72.61
2022-10-19T03:13:04.119Z,72.60
2022-10-19T03:14:01.155Z,72.38
2022-10-19T03:14:58.328Z,71.85
2022-10-19T03:15:54.908Z,71.93
2022-10-19T03:16:51.500Z,72.86
2022-10-19T03:17:48.091Z,72.60
2022-10-19T03:18:44.771Z,72.62
2022-10-19T03:19:41.374Z,72.40
2022-10-19T03:20:37.926Z,72.56
2022-10-19T03:21:35.280Z,72.91
2022-10-19T03:22:31.916Z,72.81
2022-10-19T03:23:29.667Z,71.35
2022-10-19T03:24:26.484Z,71.62
2022-10-19T03:25:23.145Z,71.03
2022-10-19T03:26:20.056Z,70.83
2022-10-19T03:27:16.717Z,72.12
2022-10-19T03:28:13.266Z,72.71
2022-10-19T03:29:09.917Z,71.66
2022-10-19T03:30:06.985Z,71.88
2022-10-19T03:31:03.879Z,71.98
2022-10-19T03:32:00.479Z,72.01
2022-10-19T03:32:58.207Z,73.51
2022-10-19T03:33:55.011Z,74.41
2022-10-19T03:34:51.603Z,74.90
2022-10-19T03:35:48.378Z,74.66
2022-10-19T03:36:45.996Z,74.58
2022-10-19T03:37:42.547Z,74.88
2022-10-19T03:38:39.127Z,74.36
2022-10-19T03:39:35.704Z,74.40
2022-10-19T03:40:32.415Z,74.47
2022-10-19T03:41:31.085Z,73.04
2022-10-19T03:42:27.686Z,72.86
2022-10-19T03:43:24.311Z,73.27
2022-10-19T03:44:20.866Z,73.14
2022-10-19T03:45:17.484Z,74.86
2022-10-19T03:46:14.476Z,75.27
2022-10-19T03:47:11.032Z,74.64
2022-10-19T03:48:08.233Z,74.74
2022-10-19T03:49:05.139Z,74.61
2022-10-19T03:50:01.732Z,74.57
2022-10-19T03:51:04.919Z,74.82
2022-10-19T03:52:01.472Z,74.56
2022-10-19T03:52:58.075Z,74.29
2022-10-19T03:53:56.463Z,74.38
2022-10-19T03:54:53.113Z,74.13
2022-10-19T03:55:49.658Z,74.13
2022-10-19T03:56:46.295Z,75.08
2022-10-19T03:57:43.285Z,75.09
2022-10-19T03:58:41.471Z,75.11
2022-10-19T03:59:38.099Z,75.04
2022-10-19T04:00:34.707Z,74.89
2022-10-19T04:01:34.586Z,75.51
2022-10-19T04:02:31.182Z,75.68
2022-10-19T04:03:27.854Z,75.41
2022-10-19T04:04:24.538Z,75.27
2022-10-19T04:05:21.097Z,75.46
2022-10-19T04:06:21.345Z,74.92
2022-10-19T04:07:20.942Z,74.55
2022-10-19T04:08:17.503Z,74.44
2022-10-19T04:09:18.154Z,74.86
2022-10-19T04:10:14.780Z,74.63
2022-10-19T04:11:13.986Z,73.89
2022-10-19T04:12:10.541Z,74.60
2022-10-19T04:13:07.210Z,75.43
2022-10-19T04:14:04.468Z,75.15
2022-10-19T04:15:01.079Z,74.44
2022-10-19T04:15:57.962Z,74.97
2022-10-19T04:16:54.518Z,74.14
2022-10-19T04:17:51.097Z,73.78
2022-10-19T04:18:47.983Z,73.99
2022-10-19T04:19:44.516Z,73.91
2022-10-19T04:20:42.868Z,73.70
2022-10-19T04:21:40.565Z,73.75
2022-10-19T04:22:37.115Z,73.46
2022-10-19T04:23:35.916Z,72.79
2022-10-19T04:24:32.603Z,72.50
2022-10-19T04:25:29.151Z,72.82
2022-10-19T04:26:26.235Z,74.15
2022-10-19T04:27:22.870Z,73.36
2022-10-19T04:28:19.915Z,72.59
2022-10-19T04:29:19.162Z,71.80
2022-10-19T04:30:15.756Z,72.14
2022-10-19T04:31:12.851Z,72.01
2022-10-19T04:32:09.439Z,73.02
2022-10-19T04:33:06.058Z,72.76
2022-10-19T04:34:02.738Z,72.41
2022-10-19T04:34:59.335Z,71.98
2022-10-19T04:36:04.931Z,71.89
2022-10-19T04:37:03.203Z,71.39
2022-10-19T04:38:00.380Z,71.23
2022-10-19T04:38:56.982Z,72.61
2022-10-19T04:39:53.531Z,73.41
2022-10-19T04:40:50.124Z,74.21
2022-10-19T04:41:46.707Z,73.18
2022-10-19T04:42:43.268Z,72.96
2022-10-19T04:43:40.512Z,73.52
2022-10-19T04:44:37.094Z,74.86
2022-10-19T04:45:35.538Z,75.05
2022-10-19T04:46:32.232Z,74.38
2022-10-19T04:47:29.804Z,75.05
2022-10-19T04:48:26.365Z,76.00
2022-10-19T04:49:22.984Z,76.64
2022-10-19T04:50:20.024Z,76.02
2022-10-19T04:51:17.322Z,75.91
2022-10-19T04:52:13.905Z,75.40
2022-10-19T04:53:10.642Z,76.50
2022-10-19T04:54:07.276Z,76.94
2022-10-19T04:55:04.143Z,76.83
2022-10-19T04:56:05.023Z,76.67
2022-10-19T04:57:01.568Z,75.99
2022-10-19T04:57:58.134Z,76.77
2022-10-19T04:58:57.517Z,77.30
2022-10-19T04:59:54.164Z,76.61
2022-10-19T05:00:50.835Z,77.07
2022-10-19T05:01:47.605Z,76.32
2022-10-19T05:02:44.962Z,76.39
2022-10-19T05:03:41.715Z,75.79
2022-10-19T05:04:40.813Z,76.42
2022-10-19T05:05:41.401Z,75.83
2022-10-19T05:06:38.011Z,76.33
2022-10-19T05:07:34.792Z,76.28
2022-10-19T05:08:32.288Z,76.58
2022-10-19T05:09:28.907Z,76.14
2022-10-19T05:10:25.568Z,76.50
2022-10-19T05:11:22.215Z,75.55
2022-10-19T05:12:18.799Z,74.79
2022-10-19T05:13:15.404Z,74.34
2022-10-19T05:14:12.025Z,74.64
2022-10-19T05:15:09.304Z,74.58
2022-10-19T05:16:07.654Z,74.58
2022-10-19T05:17:04.220Z,73.69
2022-10-19T05:18:00.823Z,73.47
2022-10-19T05:18:58.936Z,74.18
2022-10-19T05:19:55.703Z,73.83
2022-10-19T05:21:09.160Z,73.90
2022-10-19T05:22:05.818Z,74.00
2022-10-19T05:23:06.282Z,73.17
2022-10-19T05:24:04.095Z,73.04
2022-10-19T05:25:00.638Z,72.52
2022-10-19T05:26:15.474Z,72.60
2022-10-19T05:27:12.041Z,72.22
2022-10-19T05:28:08.600Z,72.61
2022-10-19T05:29:05.256Z,72.31
2022-10-19T05:30:01.888Z,72.22
2022-10-19T05:31:11.637Z,72.00
2022-10-19T05:32:08.353Z,72.18
2022-10-19T05:33:05.193Z,72.42
2022-10-19T05:34:04.026Z,72.20
2022-10-19T05:35:00.796Z,71.99
2022-10-19T05:35:57.373Z,71.37
2022-10-19T05:36:55.538Z,70.47
2022-10-19T05:37:55.304Z,70.31
2022-10-19T05:38:53.784Z,69.73
2022-10-19T05:39:50.361Z,68.33
2022-10-19T05:40:51.530Z,68.54
2022-10-19T05:41:50.695Z,68.25
2022-10-19T05:42:47.297Z,67.57
2022-10-19T05:43:44.102Z,68.46
2022-10-19T05:44:40.826Z,68.31
2022-10-19T05:45:37.509Z,67.97
2022-10-19T05:46:34.670Z,68.94
2022-10-19T05:47:32.357Z,68.96
2022-10-19T05:48:33.105Z,68.82
2022-10-19T05:49:29.969Z,69.65
2022-10-19T05:50:26.558Z,68.43
2022-10-19T05:51:24.602Z,68.32
2022-10-19T05:52:21.222Z,67.52
2022-10-19T05:53:17.863Z,67.69
2022-10-19T05:54:15.226Z,66.64
2022-10-19T05:55:11.800Z,67.04
2022-10-19T05:56:12.928Z,67.67
2022-10-19T05:57:09.710Z,67.20
2022-10-19T05:58:06.657Z,67.64
2022-10-19T05:59:05.536Z,67.19
2022-10-19T06:00:04.605Z,67.50
2022-10-19T06:01:02.215Z,67.74
2022-10-19T06:01:58.860Z,67.55
2022-10-19T06:02:59.034Z,67.75
2022-10-19T06:03:57.993Z,66.62
2022-10-19T06:04:54.623Z,66.77
2022-10-19T06:05:52.195Z,67.10
2022-10-19T06:06:48.797Z,66.05
2022-10-19T06:07:45.386Z,65.65
2022-10-19T06:08:42.061Z,66.00
2022-10-19T06:09:38.662Z,65.96
2022-10-19T06:10:35.249Z,66.03
2022-10-19T06:11:37.778Z,65.58
2022-10-19T06:12:34.266Z,66.33
2022-10-19T06:13:30.814Z,66.17
2022-10-19T06:14:27.497Z,66.33
2022-10-19T06:15:24.245Z,65.67
2022-10-19T06:16:21.385Z,65.65
2022-10-19T06:17:17.953Z,64.93
2022-10-19T06:18:14.528Z,65.67
2022-10-19T06:19:11.114Z,65.44
2022-10-19T06:20:07.947Z,65.56
2022-10-19T06:21:11.195Z,64.62
2022-10-19T06:22:07.783Z,63.17
2022-10-19T06:23:05.669Z,64.04
2022-10-19T06:24:05.099Z,63.52
2022-10-19T06:25:01.658Z,63.63
2022-10-19T06:25:58.460Z,63.36
2022-10-19T06:26:55.042Z,63.72
2022-10-19T06:27:51.696Z,62.69
2022-10-19T06:28:49.256Z,63.45
2022-10-19T06:29:45.931Z,63.45
2022-10-19T06:30:42.872Z,63.38
2022-10-19T06:31:39.586Z,63.59
2022-10-19T06:32:36.160Z,63.57
2022-10-19T06:33:33.470Z,63.27
2022-10-19T06:34:30.118Z,63.06
2022-10-19T06:35:26.808Z,63.08
2022-10-19T06:36:27.037Z,62.37
2022-10-19T06:37:23.627Z,62.44
2022-10-19T06:38:20.316Z,62.88
2022-10-19T06:39:16.908Z,62.65
2022-10-19T06:40:13.554Z,62.76
2022-10-19T06:41:11.643Z,62.93
2022-10-19T06:42:09.651Z,62.32
2022-10-19T06:43:06.288Z,62.21
2022-10-19T06:44:02.982Z,62.79
2022-10-19T06:44:59.798Z,62.83
2022-10-19T06:45:56.399Z,62.71
2022-10-19T06:46:52.964Z,63.38
2022-10-19T06:47:49.640Z,62.85
2022-10-19T06:48:57.990Z,62.97
2022-10-19T06:49:54.562Z,61.99
2022-10-19T06:50:58.326Z,61.62
2022-10-19T06:51:54.915Z,61.12
2022-10-19T06:52:51.537Z,62.18
2022-10-19T06:53:51.666Z,61.85
2022-10-19T06:54:52.375Z,62.09
2022-10-19T06:55:48.970Z,62.50
2022-10-19T06:56:45.683Z,62.22
2022-10-19T06:57:42.397Z,62.36
2022-10-19T06:58:39.703Z,62.21
2022-10-19T06:59:36.355Z,61.93
2022-10-19T07:00:33.080Z,63.34
2022-10-19T07:01:29.828Z,62.54
2022-10-19T07:02:26.528Z,62.28
2022-10-19T07:03:24.781Z,61.46
2022-10-19T07:04:21.392Z,61.23
2022-10-19T07:05:18.100Z,62.08
2022-10-19T07:06:14.729Z,61.47
2022-10-19T07:07:11.355Z,61.86
2022-10-19T07:08:08.402Z,61.99
2022-10-19T07:09:05.164Z,61.63
2022-10-19T07:10:02.157Z,61.01
2022-10-19T07:11:01.713Z,61.37
2022-10-19T07:11:58.368Z,61.35
2022-10-19T07:12:56.520Z,61.43
2022-10-19T07:13:53.691Z,59.79
2022-10-19T07:14:51.162Z,60.27
2022-10-19T07:15:48.580Z,60.32
2022-10-19T07:16:45.235Z,60.37
2022-10-19T07:17:41.843Z,60.27
2022-10-19T07:18:40.224Z,60.15
2022-10-19T07:19:36.784Z,60.08
2022-10-19T07:20:33.368Z,59.31
2022-10-19T07:21:29.989Z,59.20
2022-10-19T07:22:28.286Z,59.23
2022-10-19T07:23:26.743Z,58.93
2022-10-19T07:24:23.402Z,59.38
2022-10-19T07:25:22.691Z,59.68
2022-10-19T07:26:27.002Z,58.92
2022-10-19T07:27:24.153Z,58.33
2022-10-19T07:28:21.833Z,57.63
2022-10-19T07:29:18.421Z,58.25
2022-10-19T07:30:15.074Z,58.47
2022-10-19T07:31:15.429Z,58.59
2022-10-19T07:32:12.014Z,57.82
2022-10-19T07:33:08.684Z,58.79
2022-10-19T07:34:06.263Z,58.57
2022-10-19T07:35:03.102Z,58.72
2022-10-19T07:36:05.119Z,59.42
2022-10-19T07:37:01.844Z,58.84
2022-10-19T07:37:58.404Z,58.32
2022-10-19T07:38:55.328Z,58.37
2022-10-19T07:39:51.890Z,57.74
2022-10-19T07:40:48.460Z,57.85
2022-10-19T07:41:45.315Z,58.03
2022-10-19T07:42:41.870Z,57.57
2022-10-19T07:43:39.450Z,57.64
2022-10-19T07:44:36.450Z,57.71
2022-10-19T07:45:33.126Z,58.08
2022-10-19T07:46:35.952Z,58.13
2022-10-19T07:47:34.542Z,57.79
2022-10-19T07:48:31.610Z,58.24
2022-10-19T07:49:28.304Z,57.71
2022-10-19T07:50:25.356Z,56.45
2022-10-19T07:51:22.709Z,56.37
2022-10-19T07:52:20.431Z,55.59
2022-10-19T07:53:17.057Z,55.24
2022-10-19T07:54:13.940Z,55.70
2022-10-19T07:55:10.551Z,55.79
2022-10-19T07:56:13.181Z,55.41
2022-10-19T07:57:11.724Z,55.05
2022-10-19T07:58:08.344Z,55.06
2022-10-19T07:59:05.862Z,54.83
2022-10-19T08:00:02.713Z,54.91
2022-10-19T08:01:01.038Z,54.58
2022-10-19T08:01:58.892Z,54.30
2022-10-19T08:03:31.080Z,54.22
2022-10-19T08:05:29.416Z,54.62
2022-10-19T08:06:26.466Z,54.84
2022-10-19T08:07:23.090Z,54.81
2022-10-19T08:08:19.716Z,54.13
2022-10-19T08:09:39.925Z,54.36
2022-10-19T08:10:33.184Z,53.32
2022-10-19T08:11:33.291Z,53.17
2022-10-19T08:12:29.882Z,53.07
2022-10-19T08:13:26.554Z,52.78
2022-10-19T08:14:23.190Z,52.68
2022-10-19T08:15:19.986Z,51.87
2022-10-19T08:16:24.337Z,51.45
2022-10-19T08:17:20.932Z,52.14
2022-10-19T08:18:18.492Z,51.52
2022-10-19T08:19:16.505Z,51.79
2022-10-19T08:20:13.195Z,51.66
2022-10-19T08:21:09.813Z,51.78
2022-10-19T08:22:06.463Z,51.73
2022-10-19T08:23:03.829Z,51.18
2022-10-19T08:24:01.375Z,51.34
2022-10-19T08:24:58.033Z,51.36
2022-10-19T08:25:58.580Z,50.81
2022-10-19T08:26:55.633Z,51.29
2022-10-19T08:27:52.703Z,50.70
2022-10-19T08:28:49.481Z,49.99
2022-10-19T08:29:46.048Z,49.48
2022-10-19T08:30:42.652Z,49.08
2022-10-19T08:31:40.192Z,50.19
2022-10-19T08:32:37.121Z,48.67
2022-10-19T08:33:33.888Z,49.92
2022-10-19T08:34:30.491Z,50.62
2022-10-19T08:35:27.328Z,50.26
2022-10-19T08:36:24.050Z,50.66
2022-10-19T08:37:40.199Z,50.19
2022-10-19T08:38:37.761Z,48.79
2022-10-19T08:39:34.469Z,49.91
2022-10-19T08:40:31.536Z,49.15
2022-10-19T08:41:44.400Z,49.07
2022-10-19T08:42:49.695Z,48.59
2022-10-19T08:43:56.891Z,47.41
2022-10-19T08:45:07.462Z,47.53
2022-10-19T08:46:48.152Z,46.76
2022-10-19T08:48:13.888Z,47.86
2022-10-19T08:49:16.106Z,46.06
2022-10-19T08:50:40.918Z,46.94
2022-10-19T08:51:42.211Z,47.11
2022-10-19T08:52:39.228Z,46.36
2022-10-19T08:53:56.121Z,46.73
2022-10-19T08:54:54.553Z,46.68
2022-10-19T08:56:04.814Z,46.19
2022-10-19T08:57:43.093Z,45.32
2022-10-19T08:58:57.718Z,45.10
2022-10-19T09:00:22.039Z,45.71
2022-10-19T09:01:21.502Z,45.35
2022-10-19T09:02:39.459Z,45.58
2022-10-19T09:03:58.166Z,44.74
2022-10-19T09:05:03.603Z,42.69
2022-10-19T09:06:08.903Z,43.67
2022-10-19T09:07:33.420Z,43.95
2022-10-19T09:08:30.639Z,43.19
2022-10-19T09:09:31.880Z,43.43
2022-10-19T09:10:32.416Z,44.09
2022-10-19T09:11:37.407Z,44.56
2022-10-19T09:12:59.133Z,45.13
2022-10-19T09:14:06.158Z,44.79
2022-10-19T09:15:12.087Z,43.71
2022-10-19T09:16:14.027Z,43.26
2022-10-19T09:17:14.325Z,43.07
2022-10-19T09:18:14.337Z,43.92
2022-10-19T09:19:32.091Z,44.05
2022-10-19T09:20:39.412Z,43.31
2022-10-19T09:21:51.498Z,42.42
2022-10-19T09:23:00.787Z,42.97
2022-10-19T09:24:16.118Z,42.16
2022-10-19T09:25:18.578Z,42.28
2022-10-19T09:26:16.796Z,43.57
2022-10-19T09:27:25.404Z,42.26
2022-10-19T09:29:00.207Z,43.05
2022-10-19T09:29:58.511Z,41.41
2022-10-19T09:30:58.287Z,41.45
2022-10-19T09:32:01.164Z,41.56
2022-10-19T09:33:02.191Z,41.09
2022-10-19T09:34:06.706Z,41.03
2022-10-19T09:35:05.844Z,40.63
2022-10-19T09:36:06.417Z,41.26
2022-10-19T09:37:04.374Z,41.12
2022-10-19T09:38:01.586Z,41.24
2022-10-19T09:38:58.345Z,40.86
2022-10-19T09:39:56.198Z,41.31
2022-10-19T09:40:52.905Z,41.21
2022-10-19T09:41:56.153Z,41.25
2022-10-19T09:42:57.411Z,39.80
2022-10-19T09:43:55.631Z,40.41
2022-10-19T09:44:54.591Z,39.05
2022-10-19T09:45:59.973Z,39.96
2022-10-19T09:47:15.083Z,39.67
2022-10-19T09:48:23.560Z,39.91
2022-10-19T09:49:47.944Z,39.87
2022-10-19T09:50:56.214Z,39.78
2022-10-19T09:51:53.138Z,38.75
2022-10-19T09:53:02.840Z,38.81
2022-10-19T09:53:59.855Z,37.89
2022-10-19T09:55:25.808Z,39.55
2022-10-19T09:56:25.250Z,38.65
2022-10-19T09:57:23.116Z,39.56
2022-10-19T09:58:20.601Z,39.15
2022-10-19T09:59:23.410Z,38.45
2022-10-19T10:00:45.203Z,38.12
2022-10-19T10:01:43.814Z,37.81
2022-10-19T10:02:48.449Z,37.63
2022-10-19T10:03:53.791Z,38.77
2022-10-19T10:05:02.774Z,38.91
2022-10-19T10:06:04.140Z,38.91
2022-10-19T10:07:00.871Z,38.65
2022-10-19T10:07:58.121Z,37.55
2022-10-19T10:08:59.144Z,37.06
2022-10-19T10:09:55.945Z,37.27
2022-10-19T10:11:12.794Z,37.17
2022-10-19T10:12:09.810Z,37.24
2022-10-19T10:13:06.521Z,37.59
2022-10-19T10:14:29.216Z,37.34
2022-10-19T10:15:29.123Z,38.22
2022-10-19T10:16:30.444Z,36.83
2022-10-19T10:17:31.543Z,36.08
2022-10-19T10:18:30.023Z,35.77
2022-10-19T10:19:29.601Z,35.27
2022-10-19T10:20:30.396Z,36.38
2022-10-19T10:21:34.735Z,36.38
2022-10-19T10:22:36.802Z,36.24
2022-10-19T10:23:36.534Z,36.33
2022-10-19T10:24:34.408Z,36.59
2022-10-19T10:25:36.337Z,35.17
2022-10-19T10:26:40.181Z,35.63
2022-10-19T10:27:38.704Z,35.20
2022-10-19T10:28:47.565Z,35.03
2022-10-19T10:31:08.269Z,35.21
2022-10-19T10:32:13.769Z,35.11
2022-10-19T10:33:43.722Z,33.67
2022-10-19T10:34:51.021Z,34.53
2022-10-19T10:35:53.753Z,34.83
2022-10-19T10:36:53.747Z,34.28
2022-10-19T10:37:51.029Z,35.08
2022-10-19T10:38:52.176Z,33.30
2022-10-19T10:39:53.125Z,33.95
2022-10-19T10:40:56.721Z,33.42
2022-10-19T10:41:54.272Z,34.33
2022-10-19T10:42:54.006Z,32.88
2022-10-19T10:44:04.627Z,32.58
2022-10-19T10:45:02.895Z,32.53
2022-10-19T10:46:19.426Z,32.38
2022-10-19T10:47:20.605Z,32.65
2022-10-19T10:48:38.331Z,33.79
2022-10-19T10:49:37.489Z,32.56
2022-10-19T10:50:36.930Z,33.20
2022-10-19T10:51:49.241Z,32.02
2022-10-19T10:53:01.257Z,32.26
2022-10-19T10:54:17.048Z,31.95
2022-10-19T10:55:17.989Z,33.31
2022-10-19T10:56:29.155Z,31.92
2022-10-19T10:57:31.062Z,33.15
2022-10-19T10:58:47.942Z,32.59
2022-10-19T10:59:47.522Z,32.60
2022-10-19T11:00:45.414Z,32.13
2022-10-19T11:01:53.351Z,32.13
2022-10-19T11:03:08.005Z,33.24
2022-10-19T11:04:10.680Z,32.47
2022-10-19T11:05:28.987Z,32.67
2022-10-19T11:06:26.943Z,32.92
2022-10-19T11:07:26.643Z,31.49
2022-10-19T11:08:32.318Z,31.76
2022-10-19T11:09:31.309Z,31.73
2022-10-19T11:10:33.259Z,32.48
2022-10-19T11:11:37.037Z,31.25
2022-10-19T11:12:42.627Z,32.06
2022-10-19T11:13:46.271Z,30.95
2022-10-19T11:14:51.305Z,32.09
2022-10-19T11:15:55.594Z,31.83
2022-10-19T11:16:55.369Z,31.65
2022-10-19T11:17:59.755Z,30.97
2022-10-19T11:19:25.793Z,30.22
2022-10-19T11:20:26.888Z,32.19
2022-10-19T11:21:26.868Z,31.99
2022-10-19T11:22:39.433Z,30.83
2022-10-19T11:23:42.639Z,30.49
2022-10-19T11:24:59.084Z,30.53
2022-10-19T11:26:19.041Z,32.22
2022-10-19T11:27:27.529Z,31.58
2022-10-19T11:28:48.789Z,30.31
2022-10-19T11:30:17.719Z,30.46
2022-10-19T11:31:32.520Z,31.91
2022-10-19T11:32:57.015Z,31.08
2022-10-19T11:33:53.620Z,31.41
2022-10-19T11:35:09.717Z,31.33
2022-10-19T11:36:22.595Z,31.32
2022-10-19T11:37:45.504Z,30.12
2022-10-19T11:38:52.786Z,30.81
2022-10-19T11:40:23.370Z,31.35
2022-10-19T11:41:35.327Z,30.59
2022-10-19T11:42:53.064Z,31.67
2022-10-19T11:43:57.370Z,30.68
2022-10-19T11:45:13.872Z,31.02
2022-10-19T11:46:35.038Z,30.58
2022-10-19T11:47:31.674Z,31.73
2022-10-19T11:48:35.069Z,30.76
2022-10-19T11:49:50.409Z,30.14
2022-10-19T11:50:58.567Z,30.06
2022-10-19T11:52:16.258Z,30.69
2022-10-19T11:53:15.877Z,31.65
2022-10-19T11:54:41.876Z,30.75
2022-10-19T11:55:41.365Z,30.86
2022-10-19T11:57:01.837Z,30.51
2022-10-19T11:58:15.886Z,30.90
2022-10-19T11:59:20.439Z,30.90
2022-10-19T12:00:38.268Z,31.02
2022-10-19T12:02:00.955Z,30.71
2022-10-19T12:03:10.162Z,31.45
2022-10-19T12:04:23.609Z,30.64
2022-10-19T12:05:26.523Z,31.36
2022-10-19T12:06:23.118Z,31.01
2022-10-19T12:07:48.711Z,29.97
2022-10-19T12:08:55.247Z,30.73
2022-10-19T12:10:04.128Z,30.45
2022-10-19T12:11:29.936Z,31.31
2022-10-19T12:12:38.440Z,30.36
2022-10-19T12:13:47.415Z,30.96
2022-10-19T12:14:49.852Z,30.70
2022-10-19T12:15:51.016Z,30.76
2022-10-19T12:16:53.508Z,31.58
2022-10-19T12:17:51.764Z,30.84
2022-10-19T12:18:51.951Z,31.24
2022-10-19T12:19:52.340Z,31.65
2022-10-19T12:20:55.757Z,31.45
2022-10-19T12:21:58.048Z,30.17
2022-10-19T12:22:54.851Z,30.32
2022-10-19T12:23:52.344Z,31.58
2022-10-19T12:24:50.912Z,31.23
2022-10-19T12:25:49.360Z,30.93
2022-10-19T12:26:47.733Z,31.13
2022-10-19T12:27:49.067Z,31.84
2022-10-19T12:28:58.991Z,30.50
2022-10-19T12:30:02.691Z,31.59
2022-10-19T12:31:01.476Z,31.06
2022-10-19T12:32:01.048Z,30.68
2022-10-19T12:33:17.299Z,31.03
2022-10-19T12:34:43.192Z,31.05
2022-10-19T12:35:55.840Z,30.42
2022-10-19T12:36:58.547Z,30.70
2022-10-19T12:38:15.349Z,30.45
2022-10-19T12:39:36.836Z,30.93
2022-10-19T12:40:40.435Z,31.21
2022-10-19T12:41:44.958Z,30.59
2022-10-19T12:43:12.486Z,30.48
2022-10-19T12:44:31.104Z,30.69
2022-10-19T12:45:30.634Z,30.03
2022-10-19T12:46:48.416Z,30.69
2022-10-19T12:48:14.371Z,30.82
2022-10-19T12:49:29.005Z,30.08
2022-10-19T12:50:48.540Z,30.05
2022-10-19T12:51:46.891Z,30.84
2022-10-19T12:52:49.342Z,30.48
2022-10-19T12:53:48.911Z,30.44
2022-10-19T12:54:45.917Z,31.41
2022-10-19T12:55:44.942Z,30.65
2022-10-19T12:56:54.641Z,31.43
2022-10-19T12:58:21.540Z,31.53
2022-10-19T12:59:27.275Z,30.59
2022-10-19T13:00:26.492Z,31.04
2022-10-19T13:01:28.205Z,31.40
2022-10-19T13:02:30.419Z,32.20
2022-10-19T13:03:41.930Z,31.38
2022-10-19T13:04:38.771Z,31.53
2022-10-19T13:05:36.038Z,32.20
2022-10-19T13:06:35.935Z,32.06
2022-10-19T13:07:35.325Z,31.72
2022-10-19T13:08:55.335Z,32.11
2022-10-19T13:10:01.216Z,30.98
2022-10-19T13:11:27.103Z,31.98
2022-10-19T13:12:25.834Z,31.50
2022-10-19T13:13:51.170Z,31.96
2022-10-19T13:14:55.770Z,31.53
2022-10-19T13:15:52.790Z,32.15
2022-10-19T13:17:01.043Z,31.51